Time;durP1;ratioP1;P1;durP2;ratioP2;P2;SDS_P1;SDS_P2;PMS_P1;PMS_P2;Temp;Humidity;BMP_temperature;BMP_pressure;BME280_temperature;BME280_humidity;BME280_pressure;Samples;Min_cycle;Max_cycle;Signal;HPM_P1;HPM_P2
2023/02/21 02:15:40;;;;;;;;;;;;;;;8.33;100.00;101927.69;10353380;28;19926;-69
2023/02/21 02:21:01;;;;;;;;;;;;;;;8.33;100.00;101940.72;10354690;28;20027;-68
2023/02/21 02:26:19;;;;;;;;;;;;;;;8.31;100.00;101944.28;10354100;28;20293;-68
2023/02/21 02:31:24;;;;;;;;;;;;;;;8.23;100.00;101933.22;10339857;28;19930;-68
2023/02/21 02:36:27;;;;;;;;;;;;;;;8.05;100.00;101937.22;10352683;28;19929;-70
2023/02/21 02:41:56;;;;;;;;;;;;;;;8.30;100.00;101929.53;10354739;28;19975;-70
2023/02/21 02:46:58;;;;;;;;;;;;;;;8.36;100.00;101938.03;10329780;28;19929;-69
2023/02/21 02:52:04;;;;;;;;;;;;;;;8.56;100.00;101939.22;10354169;28;19981;-70
2023/02/21 02:57:11;;;;;;;;;;;;;;;8.62;100.00;101933.78;10339029;28;19930;-70
2023/02/21 03:02:21;;;;;;;;;;;;;;;8.35;100.00;101925.91;10352067;28;19930;-70
2023/02/21 03:07:38;;;;;;;;;;;;;;;8.11;100.00;101924.84;10351344;28;19926;-70
2023/02/21 03:12:44;;;;;;;;;;;;;;;8.16;100.00;101924.72;10336906;28;20328;-70
2023/02/21 03:17:56;;;;;;;;;;;;;;;8.25;100.00;101927.03;10337581;28;19948;-70
2023/02/21 03:22:58;;;;;;;;;;;;;;;8.27;100.00;101924.41;10351959;28;20289;-69
2023/02/21 03:28:01;;;;;;;;;;;;;;;8.34;100.00;101933.78;10352302;28;20328;-70
2023/02/21 03:33:03;;;;;;;;;;;;;;;8.19;100.00;101942.91;10352635;28;19925;-71
2023/02/21 03:38:05;;;;;;;;;;;;;;;8.12;100.00;101938.75;10351408;28;20344;-70
2023/02/21 03:43:07;;;;;;;;;;;;;;;8.18;100.00;101934.19;10336621;28;19926;-70
2023/02/21 03:48:09;;;;;;;;;;;;;;;8.34;100.00;101933.78;10335784;28;19933;-70
2023/02/21 03:53:13;;;;;;;;;;;;;;;8.16;100.00;101937.78;10336136;28;20270;-70
2023/02/21 03:58:15;;;;;;;;;;;;;;;8.09;100.00;101936.25;10336158;28;20373;-70
2023/02/21 04:03:18;;;;;;;;;;;;;;;8.05;100.00;101942.44;10335783;28;19980;-70
2023/02/21 04:08:20;;;;;;;;;;;;;;;8.03;100.00;101936.41;10334436;28;19926;-69
2023/02/21 04:13:23;;;;;;;;;;;;;;;7.95;100.00;101932.28;10350510;28;19933;-70
2023/02/21 04:18:25;;;;;;;;;;;;;;;8.16;100.00;101935.16;10335853;28;19926;-70
2023/02/21 04:23:27;;;;;;;;;;;;;;;8.14;100.00;101934.34;10334338;28;19926;-70
2023/02/21 04:28:30;;;;;;;;;;;;;;;8.04;100.00;101935.53;10335470;28;19926;-70
2023/02/21 04:33:32;;;;;;;;;;;;;;;8.11;100.00;101942.25;10335232;28;19926;-69
2023/02/21 04:38:34;;;;;;;;;;;;;;;8.22;100.00;101936.72;10349732;28;19930;-71
2023/02/21 04:43:36;;;;;;;;;;;;;;;8.24;100.00;101925.34;10349641;28;20000;-70
2023/02/21 04:48:38;;;;;;;;;;;;;;;8.31;100.00;101920.81;10335036;28;19925;-70
2023/02/21 04:53:41;;;;;;;;;;;;;;;8.14;100.00;101922.16;10334198;28;19929;-70
2023/02/21 04:58:43;;;;;;;;;;;;;;;8.24;100.00;101922.75;10334549;28;19926;-70
2023/02/21 05:03:47;;;;;;;;;;;;;;;8.35;100.00;101906.75;10333449;28;20025;-70
2023/02/21 05:08:49;;;;;;;;;;;;;;;8.10;100.00;101915.34;10349702;28;19976;-69
2023/02/21 05:13:52;;;;;;;;;;;;;;;8.33;100.00;101914.63;10349608;28;19926;-70
2023/02/21 05:18:54;;;;;;;;;;;;;;;8.18;100.00;101912.47;10348134;28;20273;-70
2023/02/21 05:23:56;;;;;;;;;;;;;;;8.35;100.00;101919.81;10348873;28;19976;-70
2023/02/21 05:28:59;;;;;;;;;;;;;;;8.37;100.00;101907.56;10333593;28;19926;-70
2023/02/21 05:34:01;;;;;;;;;;;;;;;8.18;100.00;101908.09;10349103;28;20308;-70
2023/02/21 05:39:04;;;;;;;;;;;;;;;8.21;100.00;101920.22;10341433;28;20036;-70
2023/02/21 05:44:07;;;;;;;;;;;;;;;8.23;100.00;101928.84;10356322;28;20041;-70
2023/02/21 05:49:09;;;;;;;;;;;;;;;8.20;100.00;101926.31;10355541;28;20424;-70
2023/02/21 05:54:16;;;;;;;;;;;;;;;8.15;100.00;101936.03;10340805;28;20281;-70
2023/02/21 05:59:19;;;;;;;;;;;;;;;7.95;100.00;101944.44;10323510;28;19932;-70
2023/02/21 06:04:21;;;;;;;;;;;;;;;8.13;100.00;101945.69;10339274;28;20039;-70
2023/02/21 06:09:24;;;;;;;;;;;;;;;8.26;100.00;101936.59;10339138;28;19933;-70
2023/02/21 06:14:26;;;;;;;;;;;;;;;8.24;100.00;101941.00;10340871;28;19926;-70
2023/02/21 06:19:28;;;;;;;;;;;;;;;8.10;100.00;101938.81;10354917;28;20289;-70
2023/02/21 06:24:32;;;;;;;;;;;;;;;7.94;100.00;101943.59;10355102;28;19961;-70
2023/02/21 06:29:35;;;;;;;;;;;;;;;8.18;100.00;101949.00;10338805;28;19972;-70
2023/02/21 06:34:37;;;;;;;;;;;;;;;8.19;100.00;101942.91;10339243;28;19934;-70
2023/02/21 06:39:39;;;;;;;;;;;;;;;8.16;100.00;101962.09;10339721;28;19985;-70
2023/02/21 06:44:44;;;;;;;;;;;;;;;8.13;100.00;101954.34;10353689;28;19925;-70
2023/02/21 06:49:47;;;;;;;;;;;;;;;8.05;100.00;101950.25;10353078;28;20301;-68
2023/02/21 06:54:49;;;;;;;;;;;;;;;8.20;100.00;101949.81;10338421;28;19997;-68
2023/02/21 06:59:51;;;;;;;;;;;;;;;7.86;100.00;101944.72;10352442;28;19926;-68
2023/02/21 07:04:54;;;;;;;;;;;;;;;8.13;100.00;101948.28;10338719;28;19926;-68
2023/02/21 07:09:56;;;;;;;;;;;;;;;8.23;100.00;101954.94;10338607;28;20102;-70
2023/02/21 07:14:58;;;;;;;;;;;;;;;8.06;100.00;101951.97;10352094;28;20397;-70
2023/02/21 07:20:01;;;;;;;;;;;;;;;8.24;100.00;101942.75;10356341;28;19926;-70
2023/02/21 07:25:03;;;;;;;;;;;;;;;8.13;100.00;101946.53;10352437;28;20282;-70
2023/02/21 07:30:06;;;;;;;;;;;;;;;8.17;100.00;101958.59;10336535;28;19976;-70
2023/02/21 07:35:08;;;;;;;;;;;;;;;8.31;100.00;101947.75;10337041;28;20447;-71
2023/02/21 07:40:11;;;;;;;;;;;;;;;8.21;100.00;101967.19;10336475;28;19952;-70
2023/02/21 07:45:14;;;;;;;;;;;;;;;8.33;100.00;101966.81;10351713;28;19925;-71
2023/02/21 07:50:16;;;;;;;;;;;;;;;8.35;100.00;101946.78;10335567;28;19930;-70
2023/02/21 07:55:18;;;;;;;;;;;;;;;8.23;100.00;101962.78;10351122;28;19933;-71
2023/02/21 08:00:24;;;;;;;;;;;;;;;7.96;100.00;101967.03;10350773;28;19926;-70
2023/02/21 08:05:26;;;;;;;;;;;;;;;8.35;100.00;101966.78;10335085;28;20020;-70
2023/02/21 08:10:28;;;;;;;;;;;;;;;8.05;100.00;101974.56;10349329;28;19933;-70
2023/02/21 08:15:30;;;;;;;;;;;;;;;8.30;100.00;101971.28;10416779;23;19935;-70
2023/02/21 08:20:33;;;;;;;;;;;;;;;8.30;100.00;101964.28;10456067;28;19974;-72
2023/02/21 08:25:36;;;;;;;;;;;;;;;8.27;100.00;101955.72;10456098;28;19928;-72
2023/02/21 08:30:38;;;;;;;;;;;;;;;8.27;100.00;101959.19;10460128;28;21551;-72
2023/02/21 08:35:40;;;;;;;;;;;;;;;8.26;100.00;101957.47;10454735;28;20264;-71
2023/02/21 08:40:44;;;;;;;;;;;;;;;8.24;100.00;101959.28;10461038;28;20323;-73
2023/02/21 08:45:46;;;;;;;;;;;;;;;8.23;100.00;101959.31;10438693;28;20375;-71
2023/02/21 08:50:50;;;;;;;;;;;;;;;8.13;100.00;101963.94;10436228;28;19936;-71
2023/02/21 08:55:53;;;;;;;;;;;;;;;8.16;100.00;101962.09;10453316;28;20273;-73
2023/02/21 09:00:55;;;;;;;;;;;;;;;8.12;100.00;101959.59;10455780;28;19924;-69
2023/02/21 09:05:58;;;;;;;;;;;;;;;8.41;100.00;101952.72;10436942;28;19979;-72
2023/02/21 09:11:00;;;;;;;;;;;;;;;8.32;100.00;101953.81;10459803;28;19968;-71
2023/02/21 09:16:03;;;;;;;;;;;;;;;8.80;100.00;101947.19;10464614;28;19925;-72
2023/02/21 09:21:05;;;;;;;;;;;;;;;8.18;100.00;101949.00;10464023;28;19931;-72
2023/02/21 09:26:07;;;;;;;;;;;;;;;8.43;100.00;101948.31;10447621;28;19929;-71
2023/02/21 09:31:10;;;;;;;;;;;;;;;8.41;100.00;101937.06;10465057;28;19924;-71
2023/02/21 09:36:12;;;;;;;;;;;;;;;8.70;100.00;101938.78;10464291;28;20375;-71
2023/02/21 09:41:14;;;;;;;;;;;;;;;8.89;100.00;101931.22;10464841;28;19975;-72
2023/02/21 09:46:18;;;;;;;;;;;;;;;8.42;100.00;101916.09;10446423;28;20433;-72
2023/02/21 09:51:20;;;;;;;;;;;;;;;8.77;100.00;101919.41;10446092;28;19924;-71
2023/02/21 09:56:33;;;;;;;;;;;;;;;8.77;100.00;101919.41;10463478;28;20459;-72
2023/02/21 10:01:41;;;;;;;;;;;;;;;8.60;100.00;101916.50;10463514;28;20376;-72
2023/02/21 10:06:46;;;;;;;;;;;;;;;8.91;100.00;101921.59;10463870;28;19978;-72
2023/02/21 10:11:54;;;;;;;;;;;;;;;8.67;100.00;101923.22;10462988;28;19974;-71
2023/02/21 10:16:59;;;;;;;;;;;;;;;9.05;100.00;101927.22;10462785;28;19925;-72
2023/02/21 10:22:02;;;;;;;;;;;;;;;9.21;100.00;101922.34;10444751;28;20326;-72
2023/02/21 10:27:05;;;;;;;;;;;;;;;8.80;100.00;101926.31;10463044;28;19925;-72
2023/02/21 10:32:07;;;;;;;;;;;;;;;9.13;100.00;101931.31;10445249;28;19940;-73
2023/02/21 10:37:27;;;;;;;;;;;;;;;9.08;100.00;101924.50;10462026;28;19925;-72
2023/02/21 10:42:32;;;;;;;;;;;;;;;8.98;100.00;101917.88;10444826;28;19925;-70
2023/02/21 10:47:47;;;;;;;;;;;;;;;8.77;100.00;101915.94;10461656;28;19925;-70
2023/02/21 10:52:49;;;;;;;;;;;;;;;8.83;100.00;101918.38;10444202;28;19933;-70
2023/02/21 10:57:56;;;;;;;;;;;;;;;8.92;100.00;101915.44;10444149;28;19924;-70
2023/02/21 11:03:06;;;;;;;;;;;;;;;8.61;100.00;101916.44;10443356;28;20392;-70
2023/02/21 11:08:08;;;;;;;;;;;;;;;8.86;100.00;101921.75;10443886;28;19932;-69
2023/02/21 11:13:15;;;;;;;;;;;;;;;8.78;100.00;101909.84;10459040;28;20390;-69
2023/02/21 11:18:26;;;;;;;;;;;;;;;8.73;100.00;101913.44;10416647;28;19925;-71
2023/02/21 11:23:29;;;;;;;;;;;;;;;8.65;100.00;101915.44;10418140;28;19932;-70
2023/02/21 11:28:34;;;;;;;;;;;;;;;8.94;100.00;101908.41;10415898;28;19924;-70
2023/02/21 11:33:40;;;;;;;;;;;;;;;8.73;100.00;101910.81;10459074;28;19925;-70
2023/02/21 11:38:59;;;;;;;;;;;;;;;9.22;100.00;101905.75;10459183;28;19974;-70
2023/02/21 11:44:18;;;;;;;;;;;;;;;9.00;100.00;101894.31;10421661;28;19925;-70
2023/02/21 11:49:27;;;;;;;;;;;;;;;9.43;100.00;101890.22;10399278;28;19929;-70
2023/02/21 11:54:29;;;;;;;;;;;;;;;9.23;100.00;101894.41;10431988;28;20353;-71
2023/02/21 11:59:58;;;;;;;;;;;;;;;8.76;100.00;101883.78;10442511;28;19932;-71
2023/02/21 12:05:19;;;;;;;;;;;;;;;9.06;100.00;101881.03;10414277;28;19929;-71
2023/02/21 12:10:28;;;;;;;;;;;;;;;8.91;100.00;101882.41;10416998;28;19929;-71
2023/02/21 12:15:42;;;;;;;;;;;;;;;9.36;100.00;101876.50;10399549;28;19932;-71
2023/02/21 12:21:03;;;;;;;;;;;;;;;9.01;100.00;101877.72;10399104;28;19925;-71
2023/02/21 12:26:12;;;;;;;;;;;;;;;9.21;100.00;101866.59;10416666;28;19925;-71
2023/02/21 12:31:14;;;;;;;;;;;;;;;9.61;100.00;101846.88;10415497;28;19929;-71
2023/02/21 12:36:23;;;;;;;;;;;;;;;9.25;100.00;101847.31;10416203;28;19925;-70
2023/02/21 12:41:44;;;;;;;;;;;;;;;8.98;100.00;101854.31;10445932;28;19956;-70
2023/02/21 12:46:55;;;;;;;;;;;;;;;9.29;100.00;101851.50;10415640;28;20261;-70
2023/02/21 12:51:59;;;;;;;;;;;;;;;9.29;100.00;101839.28;10454068;28;19929;-70
2023/02/21 12:57:06;;;;;;;;;;;;;;;9.06;100.00;101834.00;10439868;28;19924;-70
2023/02/21 13:02:10;;;;;;;;;;;;;;;9.41;100.00;101831.91;10439662;28;19928;-70
2023/02/21 13:07:24;;;;;;;;;;;;;;;9.56;100.00;101826.13;10422726;28;20346;-70
2023/02/21 13:12:29;;;;;;;;;;;;;;;9.62;100.00;101823.31;10440732;28;19924;-71
2023/02/21 13:17:32;;;;;;;;;;;;;;;9.23;100.00;101812.50;10438615;28;19924;-70
2023/02/21 13:28:16;;;;;;;;;;;;;;;9.49;100.00;101799.34;10456101;28;19948;-71
2023/02/21 13:33:42;;;;;;;;;;;;;;;9.84;100.00;101799.81;10439058;28;19925;-70
2023/02/21 13:38:45;;;;;;;;;;;;;;;9.56;100.00;101792.13;10456784;28;19956;-70
2023/02/21 13:43:50;;;;;;;;;;;;;;;9.38;100.00;101788.47;10455352;28;19925;-70
2023/02/21 13:49:11;;;;;;;;;;;;;;;9.09;100.00;101794.72;10456555;28;19925;-70
2023/02/21 13:54:13;;;;;;;;;;;;;;;9.28;100.00;101787.09;10455835;28;20359;-70
2023/02/21 13:59:22;;;;;;;;;;;;;;;9.31;100.00;101784.34;10445946;28;19980;-70
2023/02/21 14:04:43;;;;;;;;;;;;;;;9.72;100.00;101779.34;10464023;28;20011;-70
2023/02/21 14:09:45;;;;;;;;;;;;;;;9.52;100.00;101780.09;10463815;28;19931;-70
2023/02/21 14:14:51;;;;;;;;;;;;;;;9.54;100.00;101774.81;10462776;28;19925;-68
2023/02/21 14:19:53;;;;;;;;;;;;;;;9.89;100.00;101764.78;10445673;28;20375;-68
2023/02/21 14:25:05;;;;;;;;;;;;;;;9.59;100.00;101765.88;10445783;28;19975;-68
2023/02/21 14:30:10;;;;;;;;;;;;;;;9.41;100.00;101771.81;10444613;28;19924;-68
2023/02/21 14:35:15;;;;;;;;;;;;;;;9.75;100.00;101770.53;10462764;28;20040;-68
2023/02/21 14:40:24;;;;;;;;;;;;;;;9.47;100.00;101767.19;10462681;28;19979;-68
2023/02/21 14:45:45;;;;;;;;;;;;;;;9.29;100.00;101765.25;10444073;28;20368;-68
2023/02/21 14:51:02;;;;;;;;;;;;;;;9.50;100.00;101761.03;10461485;28;19924;-68
2023/02/21 14:56:43;;;;;;;;;;;;;;;9.58;100.00;101760.72;10461316;28;20318;-68
2023/02/21 15:01:55;;;;;;;;;;;;;;;9.61;100.00;101745.75;10334237;28;20288;-67
2023/02/21 15:07:06;;;;;;;;;;;;;;;9.83;100.00;101740.56;10436133;28;19932;-68
2023/02/21 15:12:12;;;;;;;;;;;;;;;9.53;100.00;101744.34;10460764;28;19925;-68
2023/02/21 15:17:19;;;;;;;;;;;;;;;9.63;100.00;101738.72;10440934;28;19925;-68
2023/02/21 15:22:22;;;;;;;;;;;;;;;9.56;100.00;101745.09;10440602;28;20318;-67
2023/02/21 15:27:26;;;;;;;;;;;;;;;9.49;100.00;101739.22;10458265;28;20292;-68
2023/02/21 15:32:28;;;;;;;;;;;;;;;9.41;100.00;101737.81;10457894;28;20371;-68
2023/02/21 15:37:31;;;;;;;;;;;;;;;9.52;100.00;101737.44;10440755;28;19979;-68
2023/02/21 15:42:33;;;;;;;;;;;;;;;9.70;100.00;101730.63;10439994;28;20268;-68
2023/02/21 15:47:37;;;;;;;;;;;;;;;9.55;100.00;101732.06;10439786;28;20155;-68
2023/02/21 15:52:45;;;;;;;;;;;;;;;9.54;100.00;101714.69;10457877;28;19929;-68
2023/02/21 15:58:05;;;;;;;;;;;;;;;9.45;100.00;101710.69;10457792;28;19929;-67
2023/02/21 16:03:26;;;;;;;;;;;;;;;9.32;100.00;101709.44;10457644;28;19925;-68
2023/02/21 16:08:28;;;;;;;;;;;;;;;9.45;100.00;101708.06;10456658;28;19975;-67
2023/02/21 16:13:34;;;;;;;;;;;;;;;9.46;100.00;101714.97;10376416;28;1772925;-68
2023/02/21 16:18:36;;;;;;;;;;;;;;;9.52;100.00;101713.91;10458603;28;19975;-67
2023/02/21 16:23:39;;;;;;;;;;;;;;;9.16;100.00;101709.13;10457999;28;19929;-68
2023/02/21 16:28:42;;;;;;;;;;;;;;;9.13;100.00;101706.63;10439999;28;20291;-68
2023/02/21 16:33:44;;;;;;;;;;;;;;;9.35;100.00;101698.88;10440549;28;19947;-68
2023/02/21 16:38:47;;;;;;;;;;;;;;;9.16;100.00;101707.38;10440379;28;19986;-68
2023/02/21 16:43:49;;;;;;;;;;;;;;;9.36;100.00;101701.41;10457274;28;20394;-68
2023/02/21 16:48:51;;;;;;;;;;;;;;;9.03;100.00;101699.16;10440178;28;19924;-68
2023/02/21 16:53:54;;;;;;;;;;;;;;;8.85;100.00;101702.41;10456875;28;20280;-67
2023/02/21 16:58:56;;;;;;;;;;;;;;;9.22;100.00;101708.91;10457653;28;19970;-68
2023/02/21 17:04:00;;;;;;;;;;;;;;;9.13;100.00;101712.72;10456855;28;20265;-67
2023/02/21 17:09:02;;;;;;;;;;;;;;;8.96;100.00;101712.47;10457241;28;19925;-67
2023/02/21 17:14:04;;;;;;;;;;;;;;;9.13;100.00;101710.13;10438734;28;20368;-68
2023/02/21 17:19:11;;;;;;;;;;;;;;;8.79;100.00;101710.47;10457159;28;19925;-67
2023/02/21 17:24:13;;;;;;;;;;;;;;;8.66;100.00;101716.13;10456459;28;19925;-67
2023/02/21 17:29:15;;;;;;;;;;;;;;;8.82;100.00;101715.59;10438650;28;19925;-68
2023/02/21 17:34:17;;;;;;;;;;;;;;;9.10;100.00;101712.84;10464483;28;20368;-68
2023/02/21 17:39:20;;;;;;;;;;;;;;;8.66;100.00;101715.28;10464247;28;19924;-68
2023/02/21 17:44:23;;;;;;;;;;;;;;;8.86;100.00;101712.81;10447153;28;19979;-68
2023/02/21 17:49:27;;;;;;;;;;;;;;;8.79;100.00;101718.28;10446687;28;19929;-68
2023/02/21 17:54:29;;;;;;;;;;;;;;;8.82;100.00;101715.59;10464334;28;19936;-68
2023/02/21 17:59:32;;;;;;;;;;;;;;;8.81;100.00;101722.56;10463529;28;20421;-68
2023/02/21 18:04:34;;;;;;;;;;;;;;;8.85;100.00;101710.25;10463985;28;19932;-68
2023/02/21 18:09:36;;;;;;;;;;;;;;;8.87;100.00;101711.03;10445577;28;20483;-68
2023/02/21 18:14:39;;;;;;;;;;;;;;;8.92;100.00;101711.72;10468349;28;20383;-68
2023/02/21 18:19:41;;;;;;;;;;;;;;;8.86;100.00;101711.94;10422011;28;19932;-68
2023/02/21 18:24:43;;;;;;;;;;;;;;;8.68;100.00;101716.91;10421379;28;20041;-67
2023/02/21 18:29:46;;;;;;;;;;;;;;;8.59;100.00;101711.16;10430818;28;20338;-68
2023/02/21 18:34:48;;;;;;;;;;;;;;;8.62;100.00;101708.44;10469192;28;19928;-68
2023/02/21 18:39:51;;;;;;;;;;;;;;;8.61;100.00;101709.34;10462672;28;20299;-68
2023/02/21 18:44:54;;;;;;;;;;;;;;;8.77;100.00;101714.91;10465422;28;19925;-67
2023/02/21 18:49:57;;;;;;;;;;;;;;;8.41;100.00;101710.84;10468137;28;19924;-68
2023/02/21 18:55:02;;;;;;;;;;;;;;;8.51;100.00;101711.44;10463423;28;19989;-68
2023/02/21 19:00:05;;;;;;;;;;;;;;;8.43;100.00;101709.06;10459480;28;19925;-68
2023/02/21 19:05:08;;;;;;;;;;;;;;;8.37;100.00;101714.44;10460261;28;19933;-68
2023/02/21 19:10:11;;;;;;;;;;;;;;;8.33;100.00;101712.88;10443822;28;19932;-68
2023/02/21 19:15:14;;;;;;;;;;;;;;;8.31;100.00;101704.25;10423684;28;20324;-68
2023/02/21 19:20:18;;;;;;;;;;;;;;;8.35;100.00;101704.09;10416203;28;20033;-68
2023/02/21 19:25:24;;;;;;;;;;;;;;;8.25;100.00;101701.81;10382325;28;19936;-68
2023/02/21 19:30:33;;;;;;;;;;;;;;;7.91;100.00;101706.38;10415816;28;19925;-68
2023/02/21 19:35:35;;;;;;;;;;;;;;;7.88;100.00;101698.66;10397673;28;20423;-68
2023/02/21 19:40:37;;;;;;;;;;;;;;;7.94;100.00;101695.00;10417337;28;19925;-68
2023/02/21 19:45:39;;;;;;;;;;;;;;;7.92;100.00;101697.66;10417368;28;19979;-68
2023/02/21 19:50:41;;;;;;;;;;;;;;;7.90;100.00;101693.38;10417329;28;19925;-68
2023/02/21 19:55:44;;;;;;;;;;;;;;;7.82;100.00;101691.03;10398810;28;19925;-68
2023/02/21 20:00:46;;;;;;;;;;;;;;;7.70;100.00;101694.88;10398779;28;20402;-68
2023/02/21 20:05:48;;;;;;;;;;;;;;;7.77;100.00;101690.34;10417007;28;19925;-68
2023/02/21 20:10:51;;;;;;;;;;;;;;;7.87;100.00;101696.97;10398498;28;19925;-68
2023/02/21 20:15:53;;;;;;;;;;;;;;;7.86;100.00;101686.59;10416261;28;19925;-68
2023/02/21 20:20:55;;;;;;;;;;;;;;;7.72;100.00;101679.19;10417611;28;19932;-68
2023/02/21 20:25:57;;;;;;;;;;;;;;;7.82;100.00;101675.41;10415983;28;19929;-68
2023/02/21 20:31:00;;;;;;;;;;;;;;;7.94;100.00;101676.75;10487039;23;19970;-68
2023/02/21 20:36:03;;;;;;;;;;;;;;;7.93;100.00;101664.63;10498297;28;19929;-68
2023/02/21 20:41:09;;;;;;;;;;;;;;;7.93;100.00;101664.63;10480748;28;19928;-68
2023/02/21 20:46:12;;;;;;;;;;;;;;;7.83;100.00;101661.44;10480574;28;19931;-68
2023/02/21 20:51:14;;;;;;;;;;;;;;;7.91;100.00;101650.78;10499162;28;19928;-68
2023/02/21 20:56:17;;;;;;;;;;;;;;;7.57;100.00;101657.91;10499007;28;19925;-68
2023/02/21 21:01:20;;;;;;;;;;;;;;;7.69;100.00;101659.28;10497374;28;19928;-68
2023/02/21 21:06:22;;;;;;;;;;;;;;;8.02;100.00;101651.28;10477724;28;20301;-68
2023/02/21 21:11:24;;;;;;;;;;;;;;;7.66;100.00;101650.72;10480316;28;19928;-68
2023/02/21 21:16:27;;;;;;;;;;;;;;;7.60;100.00;101646.56;10497010;28;19925;-68
2023/02/21 21:21:30;;;;;;;;;;;;;;;7.89;100.00;101647.38;10498544;28;19932;-68
2023/02/21 21:26:32;;;;;;;;;;;;;;;7.62;100.00;101648.19;10497425;28;19924;-68
2023/02/21 21:31:35;;;;;;;;;;;;;;;7.73;100.00;101645.28;10496628;28;19972;-68
2023/02/21 21:36:37;;;;;;;;;;;;;;;7.92;100.00;101636.84;10495162;28;19964;-68
2023/02/21 21:41:41;;;;;;;;;;;;;;;8.06;100.00;101631.16;10498169;28;19928;-68
2023/02/21 21:46:44;;;;;;;;;;;;;;;7.85;100.00;101635.31;10478834;28;20391;-68
2023/02/21 21:51:47;;;;;;;;;;;;;;;7.59;100.00;101631.81;10496717;28;20363;-68
2023/02/21 21:56:49;;;;;;;;;;;;;;;7.47;100.00;101630.44;10478818;28;20290;-68
2023/02/21 22:01:52;;;;;;;;;;;;;;;7.65;100.00;101612.50;10496906;28;19978;-68
2023/02/21 22:06:55;;;;;;;;;;;;;;;7.66;100.00;101611.63;10494852;28;20303;-68
2023/02/21 22:11:57;;;;;;;;;;;;;;;7.83;100.00;101604.09;10497609;28;19925;-68
2023/02/21 22:17:00;;;;;;;;;;;;;;;7.74;100.00;101607.00;10481101;28;19924;-68
2023/02/21 22:22:06;;;;;;;;;;;;;;;7.60;100.00;101597.88;10486491;28;19924;-68
2023/02/21 22:27:09;;;;;;;;;;;;;;;7.21;100.00;101594.75;10503009;28;19924;-68
2023/02/21 22:32:11;;;;;;;;;;;;;;;7.47;100.00;101588.75;10495866;28;19928;-68
2023/02/21 22:37:13;;;;;;;;;;;;;;;7.42;100.00;101562.00;10504107;28;19978;-68
2023/02/21 22:42:17;;;;;;;;;;;;;;;7.39;100.00;101557.72;10503638;28;19947;-68
2023/02/21 22:47:19;;;;;;;;;;;;;;;7.55;100.00;101554.63;10501605;28;19929;-68
2023/02/21 22:52:21;;;;;;;;;;;;;;;7.27;100.00;101552.91;10503751;28;19928;-68
2023/02/21 22:57:24;;;;;;;;;;;;;;;7.49;100.00;101544.41;10502753;28;19974;-68
2023/02/21 23:02:27;;;;;;;;;;;;;;;7.23;100.00;101530.47;10484251;28;20280;-68
2023/02/21 23:07:30;;;;;;;;;;;;;;;7.07;100.00;101530.94;10501765;28;19967;-68
2023/02/21 23:12:32;;;;;;;;;;;;;;;7.24;100.00;101526.94;10502235;28;20326;-68
2023/02/21 23:17:34;;;;;;;;;;;;;;;7.28;100.00;101512.06;10501951;28;20314;-68
2023/02/21 23:22:36;;;;;;;;;;;;;;;7.01;100.00;101501.63;10500556;28;20359;-68
2023/02/21 23:27:38;;;;;;;;;;;;;;;7.01;100.00;101512.03;10482752;28;19932;-68
2023/02/21 23:32:42;;;;;;;;;;;;;;;6.85;100.00;101514.28;10483750;28;19974;-68
2023/02/21 23:37:44;;;;;;;;;;;;;;;6.88;100.00;101498.56;10484054;28;19931;-68
2023/02/21 23:42:48;;;;;;;;;;;;;;;6.98;100.00;101492.16;10481436;28;19928;-68
2023/02/21 23:47:51;;;;;;;;;;;;;;;6.88;100.00;101491.59;10483015;28;19982;-68
2023/02/21 23:52:54;;;;;;;;;;;;;;;6.88;100.00;101494.19;10483481;28;19924;-68
2023/02/21 23:57:58;;;;;;;;;;;;;;;6.83;100.00;101483.09;10499643;28;19928;-68
